FHAW Airport Information

Runway Information
Runway 13 Length 10019 ft width 150 ft
Elevation 263 ft Threshold 0 ft Heading 117
Runway 31 Length 10019 ft Width 150 ft
Elevation 214 ft Threshold 0 ft Heading 297
Airport Frequencies
Type A/G Name RAF HAVENS Frequency 1124.7 MHZ
Type ACC Name ATLANTICO Frequency 1795.5 MHZ
Type RDO Name ASCENSION Frequency 1078 MHZ
Type TWR Name WIDEAWAKE Frequency 126.2 MHZ
Airport Navaids
Type VORTAC Name Ascension Aux Af Frequency 112200 KHZ
Type NDB Name Ascension Aux Af Frequency 360 KHZ
Airport Weather Information & NOTAM

Deprecated: The each() function is deprecated. This message will be suppressed on further calls in /home/aerocargo/public_html/lib/functions.php on line 165
ADDS - METARS form results

(0008 UTC 17 January 2021)
Data provider http://aviationweather.gov/metar/data/
 
Forecast for: FHAW (WIDE AWAKE FIELD, SH)
Text: TAF FHAW 161630Z 1618/1712 15012KT 9999 FEW020
Forecast period: 1800 UTC 16 January 2021 to 1200 UTC 17 January 2021
Forecast type: FROM: standard forecast or significant change
Winds: from the SSE (150 degrees) at 14 MPH (12 knots; 6.2 m/s)
Visibility: 6 or more miles (10+ km)
Ceiling: at least 12,000 feet AGL
Clouds: few clouds at 2000 feet AGL
Weather: no significant weather forecast for this period